Aviation Digital Data Service (ADDS)

Output produced by METARs form (1300 UTC 15 November 2018)
found at http://www.aviationweather.gov/metar/data/
 
TAF LOXA 151115Z 1512/1521 VRB03KT 9999 FEW160 
     TEMPO 1512/1516 04007KT
       
LOWG 151250Z 16003KT 140V200 9999 BKN035 09/04 Q1028 NOSIG
TAF LOWG 151115Z 1512/1612 12005KT 9999 BKN030 TX10/1513Z TN02/1605Z 
     PROB30 
     TEMPO 1600/1604 0600 BCFG SCT040
       
LOWI 151250Z 18003KT CAVOK 12/01 Q1024 NOSIG
TAF LOWI 151115Z 1512/1612 09004KT CAVOK TX11/1513Z TNM00/1606Z 
     PROB30 
     TEMPO 1602/1607 1200 BCFG VV003
       
LOWK 151250Z VRB02KT 9999 FEW030 12/05 Q1026 NOSIG
TAF LOWK 151115Z 1512/1612 08004KT 9999 FEW025 SCT040 TX11/1513Z TN04/1606Z 
     TEMPO 1520/1607 4000 BR FEW005 BKN035 
     TEMPO 1522/1608 BKN004 SCT040
       
LOWL 151250Z 10008KT 060V120 CAVOK 10/04 Q1027 NOSIG
TAF LOWL 151115Z 1512/1612 09008KT 8000 FEW015 TX08/1513Z TN03/1603Z 
     BECMG 1518/1520 BKN011 
     PROB30 
     TEMPO 1603/1609 07003KT 0400 FG VV002 
     BECMG 1610/1612 10012KT 9999 SCT015
       
LOWS 151250Z 32005KT 9999 FEW008 BKN010 06/04 Q1026 NOSIG
TAF LOWS 151115Z 1512/1612 VRB02KT 9999 FEW005 BKN015 TX08/1513Z TN01/1606Z 
     TEMPO 1512/1516 FEW004 BKN008 
     BECMG 1516/1518 BKN012 
     TEMPO 1518/1608 3500 BR BKN009 
     PROB30 
     TEMPO 1523/1608 0400 BCFG BKN003 
     BECMG 1608/1610 03006KT FEW014
       
LOWW 151250Z 36003KT 310V040 9999 FEW028 10/03 Q1029 NOSIG
TAF LOWW 151115Z 1512/1618 01004KT 9999 FEW025 TX10/1512Z TN01/1605Z 
     BECMG 1516/1518 VRB02KT CAVOK 
     BECMG 1523/1601 4000 BR NSC 
     BECMG 1602/1604 1200 MIFG FEW045 
     PROB30 
     TEMPO 1604/1608 0700 BCFG 
     BECMG 1608/1611 06005KT 6000 NSW BKN045 
     BECMG 1616/1618 VRB02KT CAVOK
       
TAF LOXT 151115Z 1512/1521 07006KT 9999 FEW030 SCT140
       
LOAV 151200Z 04004KT 25KM FEW050CU 09/02
TAF LOAV 151125Z 1512/1521 07005KT 9999 FEW050
       
LOAN 151200Z 09002KT 30KM FEW030CU
TAF LOAN 151125Z 1512/1521 03004KT 9999 FEW040
       
TAF LOXN 151115Z 1512/1521 VRB03KT 9999 FEW030 
     TEMPO 1512/1518 05006KT
       
LOXZ 151250Z VRB02KT 30KM FEW030SC BKN120AC 09/03 Q1026 NOSIG
TAF LOXZ 151115Z 1512/1521 VRB03KT 9999 SCT030 SCT130 
     BECMG 1517/1519 BKN025